This is the latest recevied weather packets stored in our database for station/object WMKD. If no packets are shown the sender has not sent any weather packets the latest 10 day(s).
| Time | Temp. | Humidity | Pressure | Rain* | Wind** | Luminosity | Snow |
|---|---|---|---|---|---|---|---|
| 1777716588 | 30° C | 74% | 1006 hPa | - | - | - | - |
| 1777712985 | 31.67° C | 66% | 1005 hPa | - | - | - | - |
| 1777709385 | 32.78° C | 59% | 1006 hPa | - | - | - | - |
| 1777706381 | 33.89° C | 56% | 1007 hPa | - | - | - | - |
| 1777705786 | 33.89° C | 56% | 1007 hPa | - | - | - | - |
| 1777702188 | 32.78° C | 59% | 1007 hPa | - | - | - | - |
| 1777698585 | 32.78° C | 59% | 1009 hPa | - | - | - | - |
| 1777694984 | 30.56° C | 70% | 1010 hPa | - | - | - | - |
| 1777691384 | 30.56° C | 70% | 1010 hPa | - | - | - | - |
| 1777687787 | 28.89° C | 83% | 1010 hPa | - | - | - | - |
| 1777684184 | 25.56° C | 94% | 1010 hPa | - | - | - | - |
| 1777680584 | 25° C | 94% | 1009 hPa | - | - | - | - |
| 1777676984 | 25° C | 94% | 1008 hPa | - | - | - | - |
| 1777673384 | 25° C | 94% | 1008 hPa | - | - | - | - |
| 1777669787 | 25° C | 10% | - | - | - | - | - |
| 1777666183 | 25° C | 10% | - | - | - | - | - |
| 1777662583 | 25.56° C | 94% | 1008 hPa | - | - | - | - |
| 1777658983 | 25.56° C | 94% | 1009 hPa | - | - | - | - |
| 1777655386 | 25.56° C | 94% | 1010 hPa | - | - | - | - |
| 1777651785 | 26.67° C | 88% | 1009 hPa | - | - | - | - |
| 1777648183 | 26.67° C | 88% | 1010 hPa | - | - | - | - |
| 1777644583 | 27.78° C | 88% | 1009 hPa | - | - | - | - |
| 1777640986 | 27.78° C | 88% | 1009 hPa | - | - | - | - |
| 1777637383 | 28.89° C | 79% | 1008 hPa | - | - | - | - |
| 1777633782 | 30° C | 74% | 1007 hPa | - | - | - | - |
* Rain since midnight (hover to see other rain measurements)
** Current wind speed in m/s (hover to see current wind gust speed)